Terminal Aerodrome Forecast
Issued by NWS Jackson, MS

Home | Current Version | Previous Version | Text Only | Print | Product List | Glossary On
Versions: 1 2 3 4 5 6 7 8 9 10 11 12 13 14 15 16 17 18 19 20
000
FTUS44 KJAN 030336 AAA
TAFMEI
TAF AMD
KMEI 030336Z 0304/0324 00000KT P6SM OVC060
     FM030800 33005KT 6SM BR OVC007
     FM031500 36006KT P6SM OVC015
     FM031800 34007KT P6SM OVC050=

USA.gov is the U.S. government's official web portal to all federal, state and local government web resources and services.